Time;durP1;ratioP1;P1;durP2;ratioP2;P2;SDS_P1;SDS_P2;PMS_P1;PMS_P2;Temp;Humidity;BMP_temperature;BMP_pressure;BME280_temperature;BME280_humidity;BME280_pressure;Samples;Min_cycle;Max_cycle;Signal;HPM_P1;HPM_P2
2023/07/18 00:00:25;;;;;;;2.10;1.90;;;28.00;40.40;;;;;;5150142;27;45405;-70
2023/07/18 00:02:52;;;;;;;3.22;1.90;;;27.90;40.30;;;;;;5150222;27;45431;-70
2023/07/18 00:05:21;;;;;;;2.70;2.08;;;27.90;40.30;;;;;;5150117;27;46370;-70
2023/07/18 00:07:49;;;;;;;3.13;2.10;;;27.90;40.30;;;;;;5150028;27;45393;-70
2023/07/18 00:10:19;;;;;;;2.15;1.90;;;27.90;40.30;;;;;;5149922;27;45381;-70
2023/07/18 00:12:45;;;;;;;1.83;1.73;;;27.90;40.30;;;;;;5150304;27;45600;-70
2023/07/18 00:15:13;;;;;;;2.38;1.98;;;27.80;40.20;;;;;;5149672;27;46654;-70
2023/07/18 00:17:40;;;;;;;2.22;2.03;;;27.80;40.30;;;;;;5150070;27;45319;-70
2023/07/18 00:20:12;;;;;;;2.00;1.80;;;27.80;40.30;;;;;;5149726;27;45402;-70
2023/07/18 00:22:40;;;;;;;1.95;1.67;;;27.80;40.30;;;;;;5150288;27;45366;-70
2023/07/18 00:25:11;;;;;;;2.38;1.90;;;27.80;40.30;;;;;;5149630;27;45452;-70
2023/07/18 00:27:38;;;;;;;2.15;1.73;;;27.70;40.30;;;;;;5149800;27;45327;-70
2023/07/18 00:30:07;;;;;;;2.00;1.90;;;27.70;40.90;;;;;;5149487;27;45344;-70
2023/07/18 00:32:34;;;;;;;2.05;1.85;;;27.70;40.30;;;;;;5149994;27;45508;-70
2023/07/18 00:35:01;;;;;;;2.78;1.83;;;27.70;40.40;;;;;;5149569;27;46392;-70
2023/07/18 00:37:27;;;;;;;2.58;1.83;;;27.70;40.30;;;;;;5149663;27;45381;-70
2023/07/18 00:39:54;;;;;;;2.20;2.00;;;27.60;40.40;;;;;;5149112;27;45772;-70
2023/07/18 00:42:23;;;;;;;2.63;2.08;;;27.60;40.40;;;;;;5149389;27;45358;-69
2023/07/18 00:44:49;;;;;;;1.85;1.75;;;27.60;40.30;;;;;;5149292;27;47884;-70
2023/07/18 00:47:16;;;;;;;2.20;2.00;;;27.60;40.50;;;;;;5149494;27;45256;-69
2023/07/18 00:49:43;;;;;;;1.92;1.77;;;27.50;40.30;;;;;;5149267;27;45393;-69
2023/07/18 00:52:10;;;;;;;1.92;1.80;;;27.50;40.40;;;;;;5149094;27;45406;-69
2023/07/18 00:54:37;;;;;;;2.00;1.85;;;27.50;40.50;;;;;;5148477;27;45751;-70
2023/07/18 00:57:05;;;;;;;2.20;1.75;;;27.50;40.40;;;;;;5149372;27;45339;-70
2023/07/18 00:59:33;;;;;;;2.25;2.03;;;27.50;40.40;;;;;;5149094;27;45264;-69
2023/07/18 01:02:02;;;;;;;1.90;1.80;;;27.40;40.40;;;;;;5149018;27;45406;-70
2023/07/18 01:04:29;;;;;;;2.38;1.90;;;27.40;40.50;;;;;;5149012;27;47621;-70
2023/07/18 01:06:56;;;;;;;1.80;1.65;;;27.40;40.50;;;;;;5148848;27;45316;-70
2023/07/18 01:09:23;;;;;;;2.10;1.80;;;27.40;40.50;;;;;;5148919;27;45672;-69
2023/07/18 01:11:49;;;;;;;1.92;1.67;;;27.40;40.50;;;;;;5148846;27;45395;-70
2023/07/18 01:14:16;;;;;;;2.03;1.83;;;27.40;40.60;;;;;;5148496;27;46345;-69
2023/07/18 01:16:44;;;;;;;3.90;2.22;;;27.40;40.50;;;;;;5149140;27;45279;-70
2023/07/18 01:19:11;;;;;;;2.75;1.70;;;27.30;40.50;;;;;;5148713;27;45433;-69
2023/07/18 01:21:42;;;;;;;2.03;1.70;;;27.30;40.50;;;;;;5148793;27;45405;-69
2023/07/18 01:24:09;;;;;;;1.98;1.55;;;27.30;40.50;;;;;;5148407;27;45553;-69
2023/07/18 01:26:35;;;;;;;2.40;1.75;;;27.30;40.50;;;;;;5148373;27;45264;-69
2023/07/18 01:29:02;;;;;;;1.80;1.70;;;27.30;40.50;;;;;;5148502;27;45291;-70
2023/07/18 01:31:30;;;;;;;1.90;1.80;;;27.20;40.50;;;;;;5148517;27;45414;-69
2023/07/18 01:33:57;;;;;;;2.03;1.85;;;27.20;40.50;;;;;;5148510;27;46404;-69
2023/07/18 01:36:24;;;;;;;2.22;1.80;;;27.20;40.50;;;;;;5148467;27;45383;-69
2023/07/18 01:38:52;;;;;;;2.22;1.83;;;27.20;40.50;;;;;;5148620;27;45251;-69
2023/07/18 01:41:19;;;;;;;2.00;1.80;;;27.10;40.50;;;;;;5148479;27;45301;-70
2023/07/18 01:43:46;;;;;;;2.13;1.65;;;27.10;40.50;;;;;;5148339;27;46413;-69
2023/07/18 01:46:13;;;;;;;1.63;1.52;;;27.10;40.50;;;;;;5148273;27;45378;-69
2023/07/18 01:48:40;;;;;;;1.88;1.60;;;27.10;40.50;;;;;;5148634;27;45416;-69
2023/07/18 01:51:06;;;;;;;1.92;1.73;;;27.00;40.50;;;;;;5148179;27;45415;-69
2023/07/18 01:53:33;;;;;;;1.70;1.50;;;27.00;40.50;;;;;;5147890;27;45494;-70
2023/07/18 01:56:02;;;;;;;2.25;1.70;;;27.00;40.50;;;;;;5148205;27;45382;-70
2023/07/18 01:58:28;;;;;;;1.98;1.70;;;27.00;40.50;;;;;;5148338;27;45310;-69
2023/07/18 02:00:55;;;;;;;2.15;1.90;;;27.00;40.50;;;;;;5148334;27;45313;-69
2023/07/18 02:03:22;;;;;;;1.50;1.40;;;27.00;40.50;;;;;;5147789;27;46398;-69
2023/07/18 02:05:49;;;;;;;1.70;1.60;;;26.90;40.50;;;;;;5147990;27;45323;-69
2023/07/18 02:08:16;;;;;;;1.60;1.50;;;26.90;40.50;;;;;;5147212;27;45511;-70
2023/07/18 02:10:42;;;;;;;1.80;1.58;;;26.90;40.50;;;;;;5148115;27;45304;-69
2023/07/18 02:13:11;;;;;;;1.40;1.27;;;26.90;40.50;;;;;;5147464;27;46421;-69
2023/07/18 02:15:37;;;;;;;1.55;1.45;;;26.90;40.50;;;;;;5147897;27;45254;-69
2023/07/18 02:18:04;;;;;;;2.38;1.60;;;26.80;40.50;;;;;;5147987;27;45306;-69
2023/07/18 02:20:31;;;;;;;2.20;1.63;;;26.80;40.50;;;;;;5148045;27;45453;-69
2023/07/18 02:23:00;;;;;;;3.78;1.45;;;26.80;40.50;;;;;;5147726;27;46460;-69
2023/07/18 02:25:27;;;;;;;1.35;1.25;;;26.80;40.50;;;;;;5147963;27;45342;-69
2023/07/18 02:27:54;;;;;;;1.58;1.48;;;26.80;40.50;;;;;;5148064;27;45314;-70
2023/07/18 02:30:22;;;;;;;1.60;1.50;;;26.70;40.50;;;;;;5147794;27;45368;-69
2023/07/18 02:32:49;;;;;;;1.83;1.40;;;26.70;40.50;;;;;;5147590;27;46510;-68
2023/07/18 02:35:17;;;;;;;1.40;1.30;;;26.70;40.50;;;;;;5147465;27;45359;-68
2023/07/18 02:37:45;;;;;;;1.35;1.25;;;26.70;40.50;;;;;;5147721;27;45401;-68
2023/07/18 02:40:12;;;;;;;1.70;1.45;;;26.60;40.50;;;;;;5147994;27;45530;-69
2023/07/18 02:42:39;;;;;;;1.95;1.38;;;26.60;40.50;;;;;;5147262;27;46649;-68
2023/07/18 02:45:08;;;;;;;2.42;1.27;;;26.60;40.50;;;;;;5147682;27;45356;-68
2023/07/18 02:47:36;;;;;;;1.67;1.30;;;26.60;40.60;;;;;;5147709;27;45381;-69
2023/07/18 02:50:03;;;;;;;2.53;1.30;;;26.60;40.60;;;;;;5147648;27;45508;-69
2023/07/18 02:52:30;;;;;;;1.52;1.30;;;26.50;40.50;;;;;;5146770;27;46342;-69
2023/07/18 02:54:57;;;;;;;2.22;1.40;;;26.50;40.50;;;;;;5147492;27;45259;-68
2023/07/18 02:57:24;;;;;;;2.05;1.48;;;26.50;40.50;;;;;;5147391;27;45488;-71
2023/07/18 02:59:51;;;;;;;1.90;1.38;;;26.50;40.50;;;;;;5147399;27;45496;-71
2023/07/18 03:02:20;;;;;;;1.75;1.35;;;26.50;40.50;;;;;;5147266;27;46386;-68
2023/07/18 03:04:49;;;;;;;1.63;1.33;;;26.40;40.50;;;;;;5147203;27;45313;-70
2023/07/18 03:07:17;;;;;;;2.00;1.40;;;26.40;40.50;;;;;;5147342;27;45500;-70
2023/07/18 03:09:44;;;;;;;1.77;1.30;;;26.40;40.50;;;;;;5147330;27;45369;-71
2023/07/18 03:12:11;;;;;;;2.03;1.58;;;26.40;40.50;;;;;;5146922;27;46402;-70
2023/07/18 03:14:38;;;;;;;1.23;1.13;;;26.40;40.60;;;;;;5147059;27;45387;-69
2023/07/18 03:17:05;;;;;;;1.63;1.30;;;26.40;40.60;;;;;;5147141;27;45299;-69
2023/07/18 03:19:32;;;;;;;1.45;1.35;;;26.40;40.60;;;;;;5150286;27;45447;-68
2023/07/18 03:22:00;;;;;;;1.23;1.13;;;26.30;40.50;;;;;;5150562;27;46536;-69
2023/07/18 03:24:27;;;;;;;1.50;1.40;;;26.30;40.60;;;;;;5150587;27;45306;-69
2023/07/18 03:26:54;;;;;;;1.50;1.40;;;26.30;40.60;;;;;;5150751;27;45385;-69
2023/07/18 03:29:21;;;;;;;2.00;1.65;;;26.30;40.60;;;;;;5150860;27;45371;-68
2023/07/18 03:31:48;;;;;;;1.45;1.25;;;26.30;40.60;;;;;;5150331;27;45394;-71
2023/07/18 03:34:14;;;;;;;1.45;1.35;;;26.30;41.20;;;;;;5150494;27;45330;-68
2023/07/18 03:36:41;;;;;;;1.65;1.30;;;26.20;40.60;;;;;;5150593;27;45280;-70
2023/07/18 03:39:11;;;;;;;2.03;1.00;;;26.20;40.60;;;;;;5150443;27;45182;-70
2023/07/18 03:41:38;;;;;;;1.73;1.17;;;26.20;40.60;;;;;;5149852;27;45429;-70
2023/07/18 03:44:06;;;;;;;1.20;1.20;;;26.20;40.60;;;;;;5150159;27;45362;-70
2023/07/18 03:46:33;;;;;;;1.85;1.20;;;26.10;40.50;;;;;;5149938;27;45201;-70
2023/07/18 03:49:00;;;;;;;1.52;1.40;;;26.10;41.10;;;;;;5150303;27;45382;-70
2023/07/18 03:51:27;;;;;;;1.35;1.25;;;26.10;41.20;;;;;;5149547;27;46394;-70
2023/07/18 03:53:55;;;;;;;1.75;1.20;;;26.10;40.60;;;;;;5149905;27;45325;-70
2023/07/18 03:56:23;;;;;;;1.13;1.02;;;26.10;40.60;;;;;;5150378;27;45325;-70
2023/07/18 03:58:51;;;;;;;1.80;1.50;;;26.10;40.60;;;;;;5150566;27;45444;-70
2023/07/18 04:01:18;;;;;;;1.50;0.98;;;26.00;40.60;;;;;;5149591;27;45807;-70
2023/07/18 04:03:45;;;;;;;1.30;1.20;;;26.00;40.60;;;;;;5150181;27;45428;-70
2023/07/18 04:06:12;;;;;;;2.53;1.10;;;26.00;40.60;;;;;;5149948;27;45343;-71
2023/07/18 04:08:38;;;;;;;2.15;1.40;;;26.00;40.60;;;;;;5150329;27;45398;-70
2023/07/18 04:11:05;;;;;;;1.10;1.05;;;26.00;40.60;;;;;;5149268;27;45408;-70
2023/07/18 04:13:33;;;;;;;1.80;1.40;;;26.00;40.60;;;;;;5149736;27;45347;-71
2023/07/18 04:16:00;;;;;;;1.50;1.23;;;25.90;40.60;;;;;;5149726;27;45256;-70
2023/07/18 04:18:27;;;;;;;1.30;1.20;;;25.90;40.60;;;;;;5149949;27;45658;-68
2023/07/18 04:21:00;;;;;;;1.30;1.20;;;25.90;40.60;;;;;;5149300;27;45402;-69
2023/07/18 04:23:27;;;;;;;1.20;1.10;;;25.90;40.70;;;;;;5149502;27;45326;-69
2023/07/18 04:25:58;;;;;;;2.10;1.30;;;25.90;40.70;;;;;;5149534;27;45256;-69
2023/07/18 04:28:25;;;;;;;1.05;0.95;;;25.90;40.60;;;;;;5149891;27;45429;-69
2023/07/18 04:30:53;;;;;;;1.60;1.50;;;25.90;40.70;;;;;;5148127;27;45435;-69
2023/07/18 04:33:20;;;;;;;2.10;1.20;;;25.90;40.70;;;;;;5149279;27;45297;-68
2023/07/18 04:35:47;;;;;;;1.13;1.08;;;25.90;40.70;;;;;;5149255;27;45217;-69
2023/07/18 04:38:14;;;;;;;1.70;1.35;;;25.90;40.70;;;;;;5146855;27;45433;-69
2023/07/18 04:40:41;;;;;;;1.77;1.25;;;25.90;40.70;;;;;;5148999;27;46647;-69
2023/07/18 04:43:08;;;;;;;0.93;0.93;;;25.80;40.70;;;;;;5149079;27;45254;-69
2023/07/18 04:45:41;;;;;;;1.30;1.20;;;25.80;40.70;;;;;;5149369;27;45459;-69
2023/07/18 04:48:10;;;;;;;1.88;1.35;;;25.80;41.30;;;;;;5149488;27;45312;-69
2023/07/18 04:50:38;;;;;;;1.25;1.10;;;25.80;40.70;;;;;;5148987;27;47854;-69
2023/07/18 04:53:05;;;;;;;1.45;1.20;;;25.80;40.70;;;;;;5148574;27;45474;-69
2023/07/18 04:55:31;;;;;;;1.33;1.17;;;25.80;40.70;;;;;;5149191;27;45265;-69
2023/07/18 04:57:58;;;;;;;2.25;1.10;;;25.80;40.70;;;;;;5149318;27;45383;-69
2023/07/18 05:00:25;;;;;;;1.30;1.20;;;25.80;40.70;;;;;;5148701;27;46288;-69
2023/07/18 05:02:52;;;;;;;1.92;1.20;;;25.80;40.70;;;;;;5148970;27;45306;-69
2023/07/18 05:05:21;;;;;;;2.63;1.27;;;25.80;40.80;;;;;;5148818;27;45337;-69
2023/07/18 05:07:48;;;;;;;1.40;1.30;;;25.80;40.70;;;;;;5149240;27;45298;-69
2023/07/18 05:10:14;;;;;;;1.38;1.20;;;25.70;40.60;;;;;;5148543;27;46657;-69
2023/07/18 05:12:42;;;;;;;3.08;1.40;;;25.70;40.60;;;;;;5148503;27;45284;-69
2023/07/18 05:15:09;;;;;;;1.40;1.30;;;25.70;40.70;;;;;;5148757;27;45318;-69
2023/07/18 05:17:36;;;;;;;2.33;1.33;;;25.70;40.70;;;;;;5148904;27;45477;-69
2023/07/18 05:20:05;;;;;;;1.42;1.10;;;25.70;40.70;;;;;;5148679;27;46435;-70
2023/07/18 05:22:33;;;;;;;1.63;1.25;;;25.70;40.70;;;;;;5148434;27;45297;-69
2023/07/18 05:25:00;;;;;;;1.50;1.20;;;25.70;40.70;;;;;;5148534;27;45603;-69
2023/07/18 05:27:27;;;;;;;1.27;1.17;;;25.70;40.70;;;;;;5148575;27;45427;-69
2023/07/18 05:29:55;;;;;;;1.35;1.25;;;25.70;40.80;;;;;;5148489;27;45614;-70
2023/07/18 05:32:28;;;;;;;1.27;1.17;;;25.70;40.80;;;;;;5148297;27;45331;-69
2023/07/18 05:34:55;;;;;;;1.52;1.30;;;25.70;40.70;;;;;;5148375;27;45376;-69
2023/07/18 05:37:24;;;;;;;1.40;1.20;;;25.70;40.80;;;;;;5148622;27;45441;-69
2023/07/18 05:39:53;;;;;;;1.25;1.15;;;25.70;40.80;;;;;;5148063;27;45253;-70
2023/07/18 05:42:19;;;;;;;2.95;1.20;;;25.70;40.80;;;;;;5148096;27;45304;-69
2023/07/18 05:44:46;;;;;;;1.20;1.10;;;25.70;40.80;;;;;;5148366;27;45320;-70
2023/07/18 05:47:13;;;;;;;1.50;1.30;;;25.70;40.80;;;;;;5148655;27;45424;-69
2023/07/18 05:49:40;;;;;;;1.02;1.02;;;25.70;41.40;;;;;;5148042;27;46563;-70
2023/07/18 05:52:07;;;;;;;1.13;0.98;;;25.70;40.80;;;;;;5147562;27;45271;-70
2023/07/18 05:54:34;;;;;;;1.77;1.25;;;25.70;40.70;;;;;;5148395;27;45283;-70
2023/07/18 05:57:03;;;;;;;1.20;1.10;;;25.70;40.80;;;;;;5148284;27;45433;-70
2023/07/18 05:59:30;;;;;;;1.38;1.27;;;25.70;40.80;;;;;;5147837;27;46816;-69
2023/07/18 06:01:57;;;;;;;1.40;1.08;;;25.70;40.80;;;;;;5147993;27;45359;-69
2023/07/18 06:04:24;;;;;;;1.40;1.30;;;25.70;40.80;;;;;;5147944;27;45333;-69
2023/07/18 06:06:51;;;;;;;1.30;1.20;;;25.70;40.80;;;;;;5147981;27;45405;-70
2023/07/18 06:09:18;;;;;;;1.30;1.20;;;25.70;40.80;;;;;;5147666;27;46457;-70
2023/07/18 06:11:44;;;;;;;1.80;1.20;;;25.70;40.90;;;;;;5147518;27;45373;-70
2023/07/18 06:14:13;;;;;;;1.85;1.20;;;25.70;40.90;;;;;;5147938;27;45264;-70
2023/07/18 06:16:40;;;;;;;1.20;1.10;;;25.70;40.80;;;;;;5148095;27;45243;-70
2023/07/18 06:19:06;;;;;;;2.22;1.27;;;25.70;40.80;;;;;;5147649;27;46411;-70
2023/07/18 06:21:34;;;;;;;1.23;1.13;;;25.70;40.80;;;;;;5147375;27;45337;-70
2023/07/18 06:24:01;;;;;;;1.08;0.98;;;25.70;40.90;;;;;;5147495;27;45295;-70
2023/07/18 06:26:27;;;;;;;1.30;1.20;;;25.70;40.90;;;;;;5147846;27;45264;-71
2023/07/18 06:28:54;;;;;;;2.55;1.35;;;25.70;40.80;;;;;;5147241;27;45313;-70
2023/07/18 06:31:23;;;;;;;1.15;1.05;;;25.70;40.90;;;;;;5147284;27;45388;-70
2023/07/18 06:33:49;;;;;;;1.27;1.15;;;25.70;40.90;;;;;;5147383;27;45428;-70
2023/07/18 06:36:16;;;;;;;1.13;1.00;;;25.70;40.80;;;;;;5147777;27;45418;-71
2023/07/18 06:38:43;;;;;;;1.00;1.00;;;25.70;40.80;;;;;;5147370;27;46756;-71
2023/07/18 06:41:12;;;;;;;1.10;0.95;;;25.70;40.90;;;;;;5147268;27;45333;-71
2023/07/18 06:43:39;;;;;;;1.98;1.10;;;25.70;40.90;;;;;;5147389;27;45330;-71
2023/07/18 06:46:08;;;;;;;0.90;0.85;;;25.70;41.00;;;;;;5147837;27;45303;-71
2023/07/18 06:48:36;;;;;;;1.40;1.27;;;25.80;41.00;;;;;;5147183;27;46339;-71
2023/07/18 06:51:06;;;;;;;2.17;1.50;;;25.80;41.10;;;;;;5147387;27;45396;-72
2023/07/18 06:53:33;;;;;;;1.30;1.20;;;25.70;41.00;;;;;;5148589;27;45327;-71
2023/07/18 06:56:00;;;;;;;1.48;1.33;;;25.80;41.10;;;;;;5150950;27;45205;-70
2023/07/18 06:58:27;;;;;;;1.50;1.38;;;25.80;41.10;;;;;;5150673;27;47632;-70
2023/07/18 07:00:54;;;;;;;1.85;1.20;;;25.80;41.10;;;;;;5150697;27;45422;-69
2023/07/18 07:03:21;;;;;;;1.67;1.30;;;25.80;41.00;;;;;;5150713;27;45306;-70
2023/07/18 07:05:49;;;;;;;1.50;1.17;;;25.80;41.00;;;;;;5151034;27;45440;-70
2023/07/18 07:08:18;;;;;;;1.10;1.00;;;25.90;41.10;;;;;;5150879;27;48014;-70
2023/07/18 07:10:46;;;;;;;1.30;1.20;;;25.90;41.00;;;;;;5150650;27;45291;-70
2023/07/18 07:13:13;;;;;;;1.40;1.10;;;25.90;41.00;;;;;;5150590;27;45326;-70
2023/07/18 07:15:40;;;;;;;2.65;1.45;;;25.90;41.00;;;;;;5151120;27;45450;-70
2023/07/18 07:18:07;;;;;;;1.60;1.05;;;25.90;40.90;;;;;;5150421;27;45658;-70
2023/07/18 07:20:34;;;;;;;1.35;1.25;;;25.90;40.90;;;;;;5150568;27;45378;-71
2023/07/18 07:23:02;;;;;;;1.00;1.00;;;26.00;41.00;;;;;;5150605;27;45385;-71
2023/07/18 07:25:30;;;;;;;1.48;1.30;;;26.00;40.90;;;;;;5150943;27;45330;-70
2023/07/18 07:27:57;;;;;;;1.05;0.90;;;26.00;40.90;;;;;;5150280;27;45387;-69
2023/07/18 07:30:24;;;;;;;1.15;1.05;;;26.00;40.90;;;;;;5150242;27;45333;-71
2023/07/18 07:32:51;;;;;;;1.48;1.20;;;26.00;40.80;;;;;;5150581;27;45401;-70
2023/07/18 07:35:18;;;;;;;1.02;1.00;;;26.10;40.80;;;;;;5150533;27;45318;-70
2023/07/18 07:37:45;;;;;;;1.65;1.50;;;26.10;40.80;;;;;;5150011;27;45524;-71
2023/07/18 07:40:14;;;;;;;1.60;1.20;;;26.10;40.90;;;;;;5150245;27;45460;-69
2023/07/18 07:42:41;;;;;;;1.33;1.23;;;26.10;40.90;;;;;;5150224;27;45390;-70
2023/07/18 07:45:08;;;;;;;1.45;1.35;;;26.10;40.90;;;;;;5150196;27;45255;-70
2023/07/18 07:47:35;;;;;;;1.67;1.40;;;26.10;40.90;;;;;;5149946;27;45271;-70
2023/07/18 07:50:01;;;;;;;1.35;1.23;;;26.10;40.80;;;;;;5149858;27;45512;-70
2023/07/18 07:52:29;;;;;;;1.42;1.33;;;26.20;40.90;;;;;;5149918;27;45398;-70
2023/07/18 07:54:56;;;;;;;1.52;1.33;;;26.10;40.90;;;;;;5150132;27;45498;-70
2023/07/18 07:57:24;;;;;;;2.17;1.50;;;26.20;41.00;;;;;;5149816;27;45479;-70
2023/07/18 07:59:51;;;;;;;1.85;1.20;;;26.20;40.90;;;;;;5149855;27;45288;-70
2023/07/18 08:02:19;;;;;;;1.70;1.38;;;26.20;40.90;;;;;;5150113;27;45393;-70
2023/07/18 08:04:46;;;;;;;1.95;1.48;;;26.20;40.90;;;;;;5148846;27;45343;-70
2023/07/18 08:07:13;;;;;;;2.17;1.20;;;26.30;41.00;;;;;;5149857;27;45430;-70
2023/07/18 08:09:40;;;;;;;2.88;1.45;;;26.30;40.90;;;;;;5149843;27;46390;-70
2023/07/18 08:12:08;;;;;;;2.38;1.65;;;26.30;40.90;;;;;;5149639;27;45402;-70
2023/07/18 08:14:37;;;;;;;1.65;1.42;;;26.30;40.90;;;;;;5149757;27;45377;-70
2023/07/18 08:17:04;;;;;;;1.42;1.30;;;26.40;41.00;;;;;;5149950;27;47677;-71
2023/07/18 08:19:33;;;;;;;1.38;1.20;;;26.40;40.90;;;;;;5149629;27;45310;-70
2023/07/18 08:21:59;;;;;;;1.60;1.42;;;26.40;40.90;;;;;;5149754;27;45362;-70
2023/07/18 08:24:26;;;;;;;2.97;1.38;;;26.40;41.00;;;;;;5149672;27;45387;-70
2023/07/18 08:26:53;;;;;;;2.08;1.35;;;26.40;41.00;;;;;;5149237;27;45302;-70
2023/07/18 08:29:20;;;;;;;1.67;1.40;;;26.40;41.60;;;;;;5149146;27;45271;-70
2023/07/18 08:31:49;;;;;;;2.28;1.33;;;26.40;41.00;;;;;;5149368;27;45234;-70
2023/07/18 08:34:17;;;;;;;1.80;1.20;;;26.40;41.00;;;;;;5149440;27;45397;-69
2023/07/18 08:36:46;;;;;;;3.88;1.38;;;26.50;41.10;;;;;;5147372;27;45646;-70
2023/07/18 08:39:13;;;;;;;6.97;1.63;;;26.50;41.00;;;;;;5140228;27;45415;-71
2023/07/18 08:41:40;;;;;;;2.33;1.70;;;26.50;41.40;;;;;;5147178;27;45298;-70
2023/07/18 08:44:07;;;;;;;3.35;1.77;;;26.50;41.90;;;;;;5149749;27;45281;-71
2023/07/18 08:46:34;;;;;;;2.05;1.80;;;26.40;41.70;;;;;;5148690;27;45461;-72
2023/07/18 08:49:02;;;;;;;2.13;1.60;;;26.40;42.20;;;;;;5146454;27;45389;-70
2023/07/18 08:51:29;;;;;;;2.13;1.30;;;26.40;42.20;;;;;;5148950;27;45474;-71
2023/07/18 08:53:57;;;;;;;3.15;1.52;;;26.40;42.20;;;;;;5149378;27;45436;-71
2023/07/18 08:56:24;;;;;;;5.30;1.88;;;26.40;42.20;;;;;;5148878;27;47238;-72
2023/07/18 08:58:51;;;;;;;3.88;2.00;;;26.40;42.40;;;;;;5146175;27;45271;-70
2023/07/18 09:01:17;;;;;;;1.65;1.50;;;26.50;42.20;;;;;;5147553;27;45421;-71
2023/07/18 09:03:44;;;;;;;3.83;1.55;;;26.50;42.10;;;;;;5149241;27;45499;-71
2023/07/18 09:06:19;;;;;;;3.45;1.70;;;26.40;42.90;;;;;;5149029;27;46907;-70
2023/07/18 09:08:47;;;;;;;1.58;1.48;;;26.40;43.00;;;;;;5146796;27;45501;-71
2023/07/18 09:11:18;;;;;;;2.47;1.50;;;26.40;43.20;;;;;;5141848;27;45314;-71
2023/07/18 09:13:45;;;;;;;2.08;1.40;;;26.40;43.30;;;;;;5147941;27;45550;-71
2023/07/18 09:16:13;;;;;;;6.63;1.60;;;26.40;43.60;;;;;;5148844;27;47975;-72
2023/07/18 09:18:43;;;;;;;3.95;1.58;;;26.30;44.10;;;;;;5146805;27;45269;-72
2023/07/18 09:21:10;;;;;;;2.65;1.85;;;26.30;44.50;;;;;;5147679;27;45384;-71
2023/07/18 09:23:41;;;;;;;5.70;2.03;;;26.30;44.60;;;;;;5144653;27;45671;-71
2023/07/18 09:26:09;;;;;;;3.25;1.65;;;26.30;44.00;;;;;;5145904;27;46622;-71
2023/07/18 09:28:36;;;;;;;2.88;1.70;;;26.30;43.80;;;;;;5142511;27;45356;-70
2023/07/18 09:31:24;;;;;;;2.88;1.67;;;26.30;43.40;;;;;;5147324;27;45333;-70
2023/07/18 09:33:52;;;;;;;3.47;1.55;;;26.30;43.20;;;;;;5148123;27;45561;-69
2023/07/18 09:36:19;;;;;;;7.95;1.67;;;26.30;42.80;;;;;;5145065;27;45550;-71
2023/07/18 09:38:48;;;;;;;2.90;1.75;;;26.30;42.80;;;;;;5146021;27;45286;-70
2023/07/18 09:41:16;;;;;;;5.97;1.90;;;26.30;42.80;;;;;;5148032;27;45396;-70
2023/07/18 09:43:43;;;;;;;3.83;1.50;;;26.40;42.70;;;;;;5146874;27;45398;-70
2023/07/18 09:46:12;;;;;;;2.80;1.40;;;26.40;42.60;;;;;;5146519;27;46257;-71
2023/07/18 09:48:39;;;;;;;2.35;1.58;;;26.30;42.60;;;;;;5144048;27;45369;-70
2023/07/18 09:51:07;;;;;;;4.80;1.75;;;26.40;42.50;;;;;;5148247;27;45373;-71
2023/07/18 09:53:34;;;;;;;2.15;1.50;;;26.40;42.70;;;;;;5146060;27;45331;-70
2023/07/18 09:56:02;;;;;;;3.63;1.65;;;26.40;43.00;;;;;;5147522;27;46786;-70
2023/07/18 09:58:29;;;;;;;2.70;1.50;;;26.40;43.50;;;;;;5145283;27;45291;-70
2023/07/18 10:00:56;;;;;;;6.75;1.60;;;26.40;43.60;;;;;;5145749;27;45346;-72
2023/07/18 10:03:23;;;;;;;5.75;1.98;;;26.50;43.60;;;;;;5146846;27;44871;-70
2023/07/18 10:05:50;;;;;;;2.85;1.52;;;26.50;43.70;;;;;;5146047;27;46152;-70
2023/07/18 10:08:17;;;;;;;1.80;1.38;;;26.60;43.70;;;;;;5145762;27;45402;-71
2023/07/18 10:11:04;;;;;;;6.43;1.77;;;26.60;43.50;;;;;;5146390;27;45356;-70
2023/07/18 10:13:32;;;;;;;2.92;1.65;;;26.70;43.20;;;;;;5146608;27;45317;-71
2023/07/18 10:16:17;;;;;;;2.58;1.80;;;26.70;42.70;;;;;;5146953;27;46695;-70
2023/07/18 10:18:44;;;;;;;4.22;1.70;;;26.70;42.60;;;;;;5135452;27;45350;-69
2023/07/18 10:21:13;;;;;;;2.80;1.77;;;26.70;42.60;;;;;;5136842;27;45369;-69
2023/07/18 10:23:41;;;;;;;2.60;1.75;;;26.80;42.70;;;;;;5146109;27;45308;-69
2023/07/18 10:26:09;;;;;;;3.13;1.42;;;26.80;42.70;;;;;;5146977;27;45387;-70
2023/07/18 10:28:42;;;;;;;3.58;1.83;;;26.80;42.70;;;;;;5144764;27;45335;-69
2023/07/18 10:31:10;;;;;;;3.83;1.40;;;26.90;42.80;;;;;;5147192;27;45255;-69
2023/07/18 10:33:41;;;;;;;3.13;1.60;;;26.90;42.80;;;;;;5147504;27;45370;-69
2023/07/18 10:36:25;;;;;;;2.53;1.50;;;26.90;42.70;;;;;;5144943;27;46230;-70
2023/07/18 10:38:52;;;;;;;2.63;1.50;;;26.90;42.70;;;;;;5145920;27;45269;-69
2023/07/18 10:41:20;;;;;;;4.18;1.70;;;27.00;42.80;;;;;;5147558;27;45357;-69
2023/07/18 10:43:48;;;;;;;4.00;1.70;;;27.00;42.70;;;;;;5147738;27;45336;-70
2023/07/18 10:46:15;;;;;;;2.05;1.65;;;27.00;42.60;;;;;;5147397;27;46509;-70
2023/07/18 10:48:42;;;;;;;2.25;1.40;;;27.00;42.60;;;;;;5143546;27;45277;-70
2023/07/18 10:51:09;;;;;;;3.63;1.90;;;27.00;42.60;;;;;;5141816;27;45275;-71
2023/07/18 10:53:36;;;;;;;2.25;1.40;;;27.10;42.50;;;;;;5141238;27;45519;-71
2023/07/18 10:56:03;;;;;;;3.65;2.15;;;27.00;42.40;;;;;;5146306;27;47705;-70
2023/07/18 10:58:31;;;;;;;2.88;1.48;;;27.00;42.40;;;;;;5145091;27;45264;-68
2023/07/18 11:00:58;;;;;;;3.15;1.60;;;27.00;42.40;;;;;;5145086;27;45387;-69
2023/07/18 11:03:27;;;;;;;2.35;1.60;;;27.00;42.30;;;;;;5146904;27;45413;-71
2023/07/18 11:05:54;;;;;;;3.33;1.60;;;27.00;42.80;;;;;;5146528;27;46244;-70
2023/07/18 11:08:25;;;;;;;2.80;1.70;;;27.00;42.90;;;;;;5144951;27;45306;-69
2023/07/18 11:10:54;;;;;;;1.73;1.55;;;27.00;43.40;;;;;;5145609;27;45308;-70
2023/07/18 11:13:21;;;;;;;6.57;1.60;;;27.00;44.10;;;;;;5139926;27;45265;-68
2023/07/18 11:15:49;;;;;;;3.40;2.00;;;27.00;43.90;;;;;;5146702;27;47318;-68
2023/07/18 11:18:16;;;;;;;3.20;1.92;;;27.00;44.60;;;;;;5144432;27;45418;-68
2023/07/18 11:20:43;;;;;;;3.03;2.08;;;27.00;44.70;;;;;;5146392;27;45430;-66
2023/07/18 11:23:10;;;;;;;2.33;1.58;;;27.00;45.60;;;;;;5145151;27;45462;-68
2023/07/18 11:25:37;;;;;;;2.45;1.73;;;27.00;45.30;;;;;;5145170;27;46717;-66
2023/07/18 11:28:04;;;;;;;4.07;1.90;;;27.00;44.80;;;;;;5144565;27;45309;-67
2023/07/18 11:30:32;;;;;;;3.08;1.65;;;27.00;45.40;;;;;;5146482;27;45380;-68
2023/07/18 11:33:13;;;;;;;4.40;1.67;;;27.00;45.20;;;;;;5146519;27;45380;-69
2023/07/18 11:35:44;;;;;;;3.83;1.80;;;26.90;45.40;;;;;;5144119;27;46713;-67
2023/07/18 11:38:11;;;;;;;5.15;3.17;;;26.90;45.50;;;;;;5144060;27;45320;-70
2023/07/18 11:40:38;;;;;;;2.45;1.60;;;26.90;45.00;;;;;;5149348;27;45341;-67
2023/07/18 11:43:05;;;;;;;2.78;1.70;;;26.90;45.30;;;;;;5149977;27;45318;-67
2023/07/18 11:45:33;;;;;;;5.82;2.00;;;26.90;45.20;;;;;;5149534;27;45303;-68
2023/07/18 11:48:00;;;;;;;5.85;2.15;;;26.90;46.20;;;;;;5145556;27;45385;-69
2023/07/18 11:50:29;;;;;;;4.65;2.03;;;26.90;46.00;;;;;;5149877;27;45244;-67
2023/07/18 11:52:57;;;;;;;3.85;1.90;;;26.90;46.20;;;;;;5148518;27;45570;-67
2023/07/18 11:55:23;;;;;;;6.82;2.30;;;26.80;46.00;;;;;;5148868;27;47284;-68
2023/07/18 11:57:50;;;;;;;4.22;2.40;;;26.80;46.10;;;;;;5147268;27;45515;-67
2023/07/18 12:00:17;;;;;;;2.85;1.80;;;26.80;46.10;;;;;;5146349;27;45448;-69
2023/07/18 12:02:44;;;;;;;6.50;2.28;;;26.80;45.90;;;;;;5149690;27;45123;-68
2023/07/18 12:05:13;;;;;;;3.95;2.05;;;26.80;47.20;;;;;;5149759;27;46840;-68
2023/07/18 12:07:43;;;;;;;5.55;2.03;;;26.80;46.70;;;;;;5144882;27;45334;-69
2023/07/18 12:10:10;;;;;;;4.22;1.92;;;26.80;46.80;;;;;;5149083;27;45326;-68
2023/07/18 12:12:38;;;;;;;5.53;2.20;;;26.70;46.90;;;;;;5147234;27;45518;-68
2023/07/18 12:15:06;;;;;;;4.75;1.90;;;26.70;46.60;;;;;;5149180;27;46678;-69
2023/07/18 12:17:33;;;;;;;4.20;1.98;;;26.70;46.50;;;;;;5147124;27;45153;-69
2023/07/18 12:20:00;;;;;;;6.15;2.35;;;26.70;46.60;;;;;;5145011;27;45271;-67
2023/07/18 12:22:26;;;;;;;3.33;2.30;;;26.70;46.30;;;;;;5128643;27;45446;-69
2023/07/18 12:24:55;;;;;;;3.15;2.00;;;26.70;46.10;;;;;;5128231;27;46405;-66
2023/07/18 12:27:21;;;;;;;3.95;2.08;;;26.70;46.50;;;;;;5133404;27;45248;-70
2023/07/18 12:29:48;;;;;;;3.53;2.05;;;26.80;46.20;;;;;;5137611;27;45343;-67
2023/07/18 12:32:15;;;;;;;2.95;2.00;;;26.80;46.20;;;;;;5128520;27;45339;-68
2023/07/18 12:34:42;;;;;;;4.63;2.00;;;26.80;46.40;;;;;;5127282;27;45532;-68
2023/07/18 12:37:09;;;;;;;5.43;2.65;;;26.80;46.40;;;;;;5127688;27;45452;-68
2023/07/18 12:39:36;;;;;;;2.97;2.40;;;26.80;46.60;;;;;;5147080;27;45480;-68
2023/07/18 12:42:05;;;;;;;5.90;2.10;;;26.80;46.50;;;;;;5138733;27;45317;-69
2023/07/18 12:44:39;;;;;;;2.67;1.70;;;26.80;46.30;;;;;;5128201;27;46472;-68
2023/07/18 12:47:06;;;;;;;4.63;1.90;;;26.90;46.70;;;;;;5126827;27;45324;-70
2023/07/18 12:49:33;;;;;;;5.03;2.13;;;26.90;46.60;;;;;;5130986;27;45402;-69